sensor_id;sensor_type;location;lat;lon;timestamp;pressure;altitude;pressure_sealevel;temperature
77599;BMP280;66758;52.078;5.070;2023-02-01T00:00:21;102088.78;;;4.63
77599;BMP280;66758;52.078;5.070;2023-02-01T00:02:47;102070.50;;;4.79
77599;BMP280;66758;52.078;5.070;2023-02-01T00:05:14;102074.38;;;4.68
77599;BMP280;66758;52.078;5.070;2023-02-01T00:07:40;102082.97;;;4.85
77599;BMP280;66758;52.078;5.070;2023-02-01T00:10:06;102076.91;;;5.03
77599;BMP280;66758;52.078;5.070;2023-02-01T00:12:32;102079.28;;;5.15
77599;BMP280;66758;52.078;5.070;2023-02-01T00:14:58;102074.47;;;5.36
77599;BMP280;66758;52.078;5.070;2023-02-01T00:17:23;102089.81;;;5.22
77599;BMP280;66758;52.078;5.070;2023-02-01T00:19:50;102075.31;;;5.31
77599;BMP280;66758;52.078;5.070;2023-02-01T00:22:16;102074.44;;;5.41
77599;BMP280;66758;52.078;5.070;2023-02-01T00:24:41;102074.38;;;5.51
77599;BMP280;66758;52.078;5.070;2023-02-01T00:27:08;102074.31;;;5.56
77599;BMP280;66758;52.078;5.070;2023-02-01T00:29:34;102078.66;;;5.57
77599;BMP280;66758;52.078;5.070;2023-02-01T00:31:59;102079.53;;;5.82
77599;BMP280;66758;52.078;5.070;2023-02-01T00:34:25;102073.91;;;5.73
77599;BMP280;66758;52.078;5.070;2023-02-01T00:36:52;102066.31;;;5.99
77599;BMP280;66758;52.078;5.070;2023-02-01T00:39:18;102072.44;;;5.86
77599;BMP280;66758;52.078;5.070;2023-02-01T00:41:44;102098.78;;;6.14
77599;BMP280;66758;52.078;5.070;2023-02-01T00:44:10;102078.13;;;6.13
77599;BMP280;66758;52.078;5.070;2023-02-01T00:46:36;102075.44;;;6.08
77599;BMP280;66758;52.078;5.070;2023-02-01T00:49:03;102068.16;;;6.27
77599;BMP280;66758;52.078;5.070;2023-02-01T00:51:29;102073.38;;;6.24
77599;BMP280;66758;52.078;5.070;2023-02-01T00:53:56;102073.38;;;6.24
77599;BMP280;66758;52.078;5.070;2023-02-01T00:56:22;102073.63;;;6.27
77599;BMP280;66758;52.078;5.070;2023-02-01T00:58:48;102063.06;;;6.44
77599;BMP280;66758;52.078;5.070;2023-02-01T01:01:22;102053.78;;;6.45
77599;BMP280;66758;52.078;5.070;2023-02-01T01:03:51;102056.44;;;6.50
77599;BMP280;66758;52.078;5.070;2023-02-01T01:06:20;102061.63;;;6.28
77599;BMP280;66758;52.078;5.070;2023-02-01T01:08:46;102063.06;;;6.44
77599;BMP280;66758;52.078;5.070;2023-02-01T01:11:17;102056.06;;;6.38
77599;BMP280;66758;52.078;5.070;2023-02-01T01:13:48;102053.09;;;6.35
77599;BMP280;66758;52.078;5.070;2023-02-01T01:16:15;102055.56;;;6.31
77599;BMP280;66758;52.078;5.070;2023-02-01T01:18:41;102060.44;;;6.34
77599;BMP280;66758;52.078;5.070;2023-02-01T01:21:11;102051.66;;;6.42
77599;BMP280;66758;52.078;5.070;2023-02-01T01:23:37;102051.13;;;6.40
77599;BMP280;66758;52.078;5.070;2023-02-01T01:26:14;102063.56;;;6.46
77599;BMP280;66758;52.078;5.070;2023-02-01T01:28:40;102050.47;;;6.48
77599;BMP280;66758;52.078;5.070;2023-02-01T01:31:10;102050.94;;;6.56
77599;BMP280;66758;52.078;5.070;2023-02-01T01:33:36;102052.66;;;6.46
77599;BMP280;66758;52.078;5.070;2023-02-01T01:36:04;102055.50;;;6.60
77599;BMP280;66758;52.078;5.070;2023-02-01T01:38:31;102054.38;;;6.61
77599;BMP280;66758;52.078;5.070;2023-02-01T01:40:57;102050.31;;;6.59
77599;BMP280;66758;52.078;5.070;2023-02-01T01:43:23;102059.69;;;6.53
77599;BMP280;66758;52.078;5.070;2023-02-01T01:45:49;102051.94;;;6.41
77599;BMP280;66758;52.078;5.070;2023-02-01T01:48:34;102050.94;;;6.56
77599;BMP280;66758;52.078;5.070;2023-02-01T01:51:03;102046.94;;;6.48
77599;BMP280;66758;52.078;5.070;2023-02-01T01:53:57;102046.59;;;6.73
77599;BMP280;66758;52.078;5.070;2023-02-01T01:56:25;102036.22;;;6.75
77599;BMP280;66758;52.078;5.070;2023-02-01T01:58:52;102041.66;;;6.75
77599;BMP280;66758;52.078;5.070;2023-02-01T02:01:18;102017.22;;;6.89
77599;BMP280;66758;52.078;5.070;2023-02-01T02:03:45;102030.03;;;6.89
77599;BMP280;66758;52.078;5.070;2023-02-01T02:06:26;102027.38;;;7.02
77599;BMP280;66758;52.078;5.070;2023-02-01T02:08:53;102023.03;;;7.01
77599;BMP280;66758;52.078;5.070;2023-02-01T02:11:19;102024.72;;;6.97
77599;BMP280;66758;52.078;5.070;2023-02-01T02:13:49;102035.53;;;7.02
77599;BMP280;66758;52.078;5.070;2023-02-01T02:16:38;102020.00;;;7.03
77599;BMP280;66758;52.078;5.070;2023-02-01T02:33:23;102005.78;;;7.06
77599;BMP280;66758;52.078;5.070;2023-02-01T02:39:08;101994.78;;;7.11
77599;BMP280;66758;52.078;5.070;2023-02-01T02:48:30;102004.47;;;7.03
77599;BMP280;66758;52.078;5.070;2023-02-01T02:51:13;102009.91;;;7.03
77599;BMP280;66758;52.078;5.070;2023-02-01T02:54:07;102002.56;;;7.04
77599;BMP280;66758;52.078;5.070;2023-02-01T02:56:53;101992.97;;;7.06
77599;BMP280;66758;52.078;5.070;2023-02-01T02:59:44;101959.81;;;7.18
77599;BMP280;66758;52.078;5.070;2023-02-01T03:02:29;101960.34;;;7.01
77599;BMP280;66758;52.078;5.070;2023-02-01T03:05:16;101965.09;;;7.09
77599;BMP280;66758;52.078;5.070;2023-02-01T03:19:04;101985.22;;;6.81
77599;BMP280;66758;52.078;5.070;2023-02-01T03:21:38;101959.84;;;6.99
77599;BMP280;66758;52.078;5.070;2023-02-01T03:26:38;101952.72;;;6.84
77599;BMP280;66758;52.078;5.070;2023-02-01T03:29:17;101964.59;;;6.75
77599;BMP280;66758;52.078;5.070;2023-02-01T03:31:43;101968.50;;;6.69
77599;BMP280;66758;52.078;5.070;2023-02-01T03:34:11;101966.91;;;6.68
77599;BMP280;66758;52.078;5.070;2023-02-01T03:36:51;101973.34;;;6.72
77599;BMP280;66758;52.078;5.070;2023-02-01T03:41:57;101969.06;;;6.84
77599;BMP280;66758;52.078;5.070;2023-02-01T03:48:02;101957.97;;;6.81
77599;BMP280;66758;52.078;5.070;2023-02-01T03:50:32;101967.16;;;6.85
77599;BMP280;66758;52.078;5.070;2023-02-01T03:53:05;101970.19;;;6.83
77599;BMP280;66758;52.078;5.070;2023-02-01T03:55:34;101982.19;;;6.82
77599;BMP280;66758;52.078;5.070;2023-02-01T03:58:15;101982.31;;;6.91
77599;BMP280;66758;52.078;5.070;2023-02-01T04:00:46;101978.28;;;6.89
77599;BMP280;66758;52.078;5.070;2023-02-01T04:03:17;101980.56;;;6.81
77599;BMP280;66758;52.078;5.070;2023-02-01T04:05:42;101980.00;;;6.98
77599;BMP280;66758;52.078;5.070;2023-02-01T04:08:08;101976.19;;;6.99
77599;BMP280;66758;52.078;5.070;2023-02-01T04:10:34;101962.66;;;6.94
77599;BMP280;66758;52.078;5.070;2023-02-01T04:13:00;101957.75;;;7.10
77599;BMP280;66758;52.078;5.070;2023-02-01T04:15:28;101977.25;;;7.17
77599;BMP280;66758;52.078;5.070;2023-02-01T04:17:56;101978.03;;;7.04
77599;BMP280;66758;52.078;5.070;2023-02-01T04:20:21;101978.03;;;7.04
77599;BMP280;66758;52.078;5.070;2023-02-01T04:22:47;101980.94;;;6.94
77599;BMP280;66758;52.078;5.070;2023-02-01T04:25:12;101981.44;;;6.96
77599;BMP280;66758;52.078;5.070;2023-02-01T04:27:38;101968.13;;;6.94
77599;BMP280;66758;52.078;5.070;2023-02-01T04:30:04;101971.84;;;6.98
77599;BMP280;66758;52.078;5.070;2023-02-01T04:32:36;101973.56;;;6.94
77599;BMP280;66758;52.078;5.070;2023-02-01T04:35:02;101963.47;;;6.95
77599;BMP280;66758;52.078;5.070;2023-02-01T04:37:28;101974.84;;;6.97
77599;BMP280;66758;52.078;5.070;2023-02-01T04:39:56;101963.63;;;6.84
77599;BMP280;66758;52.078;5.070;2023-02-01T04:42:22;101967.31;;;6.94
77599;BMP280;66758;52.078;5.070;2023-02-01T04:44:48;101969.47;;;6.78
77599;BMP280;66758;52.078;5.070;2023-02-01T04:47:14;101967.84;;;6.77
77599;BMP280;66758;52.078;5.070;2023-02-01T04:49:41;101965.34;;;6.62
77599;BMP280;66758;52.078;5.070;2023-02-01T04:52:07;101972.06;;;6.69
77599;BMP280;66758;52.078;5.070;2023-02-01T04:54:33;101969.53;;;6.73
77599;BMP280;66758;52.078;5.070;2023-02-01T04:56:59;101972.41;;;6.63
77599;BMP280;66758;52.078;5.070;2023-02-01T04:59:25;101958.56;;;6.59
77599;BMP280;66758;52.078;5.070;2023-02-01T05:01:51;101963.94;;;6.64
77599;BMP280;66758;52.078;5.070;2023-02-01T05:04:16;101955.84;;;6.59
77599;BMP280;66758;52.078;5.070;2023-02-01T05:06:45;101963.59;;;6.52
77599;BMP280;66758;52.078;5.070;2023-02-01T05:09:11;101957.25;;;6.57
77599;BMP280;66758;52.078;5.070;2023-02-01T05:11:37;101944.13;;;6.59
77599;BMP280;66758;52.078;5.070;2023-02-01T05:14:21;101951.72;;;6.62
77599;BMP280;66758;52.078;5.070;2023-02-01T05:16:47;101950.25;;;6.50
77599;BMP280;66758;52.078;5.070;2023-02-01T05:19:12;101942.91;;;6.51
77599;BMP280;66758;52.078;5.070;2023-02-01T05:21:38;101954.66;;;6.46
77599;BMP280;66758;52.078;5.070;2023-02-01T05:24:07;101964.41;;;6.53
77599;BMP280;66758;52.078;5.070;2023-02-01T05:26:37;101972.03;;;6.50
77599;BMP280;66758;52.078;5.070;2023-02-01T05:29:04;101972.72;;;6.42
77599;BMP280;66758;52.078;5.070;2023-02-01T05:31:31;101973.28;;;6.39
77599;BMP280;66758;52.078;5.070;2023-02-01T05:33:56;101971.91;;;6.42
77599;BMP280;66758;52.078;5.070;2023-02-01T05:36:23;101975.34;;;6.47
77599;BMP280;66758;52.078;5.070;2023-02-01T05:38:57;101988.59;;;6.54
77599;BMP280;66758;52.078;5.070;2023-02-01T05:41:26;101979.03;;;6.57
77599;BMP280;66758;52.078;5.070;2023-02-01T05:43:51;101982.41;;;6.48
77599;BMP280;66758;52.078;5.070;2023-02-01T05:46:17;101972.41;;;6.63
77599;BMP280;66758;52.078;5.070;2023-02-01T05:48:43;101977.63;;;6.59
77599;BMP280;66758;52.078;5.070;2023-02-01T05:51:11;101973.50;;;6.62
77599;BMP280;66758;52.078;5.070;2023-02-01T05:53:37;101983.44;;;6.53
77599;BMP280;66758;52.078;5.070;2023-02-01T05:56:03;101976.44;;;6.46
77599;BMP280;66758;52.078;5.070;2023-02-01T05:58:29;101973.38;;;6.53
77599;BMP280;66758;52.078;5.070;2023-02-01T06:00:55;101961.66;;;6.53
77599;BMP280;66758;52.078;5.070;2023-02-01T06:03:21;101979.78;;;6.43
77599;BMP280;66758;52.078;5.070;2023-02-01T06:05:47;101975.44;;;6.42
77599;BMP280;66758;52.078;5.070;2023-02-01T06:08:13;101974.34;;;6.43
77599;BMP280;66758;52.078;5.070;2023-02-01T06:10:39;101959.53;;;6.49
77599;BMP280;66758;52.078;5.070;2023-02-01T06:13:05;101967.31;;;6.37
77599;BMP280;66758;52.078;5.070;2023-02-01T06:15:31;101968.66;;;6.40
77599;BMP280;66758;52.078;5.070;2023-02-01T06:17:57;101975.97;;;6.44
77599;BMP280;66758;52.078;5.070;2023-02-01T06:20:28;101985.22;;;6.43
77599;BMP280;66758;52.078;5.070;2023-02-01T06:22:56;101978.69;;;6.44
77599;BMP280;66758;52.078;5.070;2023-02-01T06:25:25;101987.94;;;6.43
77599;BMP280;66758;52.078;5.070;2023-02-01T06:27:51;101974.00;;;6.45
77599;BMP280;66758;52.078;5.070;2023-02-01T06:30:25;101984.84;;;6.50
77599;BMP280;66758;52.078;5.070;2023-02-01T06:32:59;101971.97;;;6.37
77599;BMP280;66758;52.078;5.070;2023-02-01T06:35:25;101979.16;;;6.46
77599;BMP280;66758;52.078;5.070;2023-02-01T06:37:53;101994.41;;;6.47
77599;BMP280;66758;52.078;5.070;2023-02-01T06:40:23;101990.50;;;6.54
77599;BMP280;66758;52.078;5.070;2023-02-01T06:42:54;101997.06;;;6.53
77599;BMP280;66758;52.078;5.070;2023-02-01T06:45:20;101990.75;;;6.57
77599;BMP280;66758;52.078;5.070;2023-02-01T06:47:46;101988.44;;;6.64
77599;BMP280;66758;52.078;5.070;2023-02-01T06:50:21;101978.44;;;6.60
77599;BMP280;66758;52.078;5.070;2023-02-01T06:52:47;101988.44;;;6.64
77599;BMP280;66758;52.078;5.070;2023-02-01T06:55:12;101983.00;;;6.64
77599;BMP280;66758;52.078;5.070;2023-02-01T06:57:40;101985.50;;;6.61
77599;BMP280;66758;52.078;5.070;2023-02-01T07:00:07;101990.38;;;6.64
77599;BMP280;66758;52.078;5.070;2023-02-01T07:02:33;101979.75;;;6.62
77599;BMP280;66758;52.078;5.070;2023-02-01T07:04:58;101981.69;;;6.62
77599;BMP280;66758;52.078;5.070;2023-02-01T07:07:26;101993.47;;;6.57
77599;BMP280;66758;52.078;5.070;2023-02-01T07:09:53;101992.72;;;6.52
77599;BMP280;66758;52.078;5.070;2023-02-01T07:12:20;101989.84;;;6.62
77599;BMP280;66758;52.078;5.070;2023-02-01T07:14:53;102007.28;;;6.61
77599;BMP280;66758;52.078;5.070;2023-02-01T07:17:19;102013.47;;;6.85
77599;BMP280;66758;52.078;5.070;2023-02-01T07:19:45;102010.91;;;6.75
77599;BMP280;66758;52.078;5.070;2023-02-01T07:22:12;102001.38;;;6.91
77599;BMP280;66758;52.078;5.070;2023-02-01T07:24:44;101986.38;;;6.94
77599;BMP280;66758;52.078;5.070;2023-02-01T07:27:25;101997.63;;;6.87
77599;BMP280;66758;52.078;5.070;2023-02-01T07:29:51;101981.81;;;6.89
77599;BMP280;66758;52.078;5.070;2023-02-01T07:32:17;101991.38;;;6.86
77599;BMP280;66758;52.078;5.070;2023-02-01T07:34:44;102000.59;;;6.91
77599;BMP280;66758;52.078;5.070;2023-02-01T07:37:10;101985.63;;;6.88
77599;BMP280;66758;52.078;5.070;2023-02-01T07:39:36;101977.56;;;6.83
77599;BMP280;66758;52.078;5.070;2023-02-01T07:42:02;101986.97;;;6.72
77599;BMP280;66758;52.078;5.070;2023-02-01T07:44:28;101994.19;;;6.81
77599;BMP280;66758;52.078;5.070;2023-02-01T07:46:53;101984.19;;;6.77
77599;BMP280;66758;52.078;5.070;2023-02-01T07:49:20;101992.34;;;6.77
77599;BMP280;66758;52.078;5.070;2023-02-01T07:51:46;102001.31;;;6.77
77599;BMP280;66758;52.078;5.070;2023-02-01T07:54:12;101984.75;;;6.74
77599;BMP280;66758;52.078;5.070;2023-02-01T07:56:38;101994.56;;;6.75
77599;BMP280;66758;52.078;5.070;2023-02-01T07:59:04;102032.78;;;6.70
77599;BMP280;66758;52.078;5.070;2023-02-01T08:01:30;102021.94;;;6.83
77599;BMP280;66758;52.078;5.070;2023-02-01T08:04:02;102004.34;;;6.76
77599;BMP280;66758;52.078;5.070;2023-02-01T08:06:32;102016.06;;;6.76
77599;BMP280;66758;52.078;5.070;2023-02-01T08:08:59;102020.75;;;6.71
77599;BMP280;66758;52.078;5.070;2023-02-01T08:11:25;102012.28;;;6.72
77599;BMP280;66758;52.078;5.070;2023-02-01T08:13:51;102015.47;;;6.79
77599;BMP280;66758;52.078;5.070;2023-02-01T08:16:20;102017.53;;;6.69
77599;BMP280;66758;52.078;5.070;2023-02-01T08:18:46;102008.16;;;6.75
77599;BMP280;66758;52.078;5.070;2023-02-01T08:21:16;102005.91;;;6.82
77599;BMP280;66758;52.078;5.070;2023-02-01T08:23:44;101999.84;;;6.85
77599;BMP280;66758;52.078;5.070;2023-02-01T08:28:45;101982.84;;;6.93
77599;BMP280;66758;52.078;5.070;2023-02-01T08:31:14;101981.22;;;6.92
77599;BMP280;66758;52.078;5.070;2023-02-01T08:33:59;101991.19;;;6.83
77599;BMP280;66758;52.078;5.070;2023-02-01T08:36:46;101975.50;;;6.75
77599;BMP280;66758;52.078;5.070;2023-02-01T08:39:12;101970.78;;;6.80
77599;BMP280;66758;52.078;5.070;2023-02-01T08:41:39;101981.00;;;6.89
77599;BMP280;66758;52.078;5.070;2023-02-01T08:44:08;101986.38;;;6.94
77599;BMP280;66758;52.078;5.070;2023-02-01T08:46:34;101988.28;;;6.93
77599;BMP280;66758;52.078;5.070;2023-02-01T08:49:01;101979.44;;;7.01
77599;BMP280;66758;52.078;5.070;2023-02-01T08:51:30;101978.66;;;7.14
77599;BMP280;66758;52.078;5.070;2023-02-01T08:53:56;101968.75;;;7.05
77599;BMP280;66758;52.078;5.070;2023-02-01T08:56:22;101985.72;;;7.15
77599;BMP280;66758;52.078;5.070;2023-02-01T08:58:48;101994.63;;;7.21
77599;BMP280;66758;52.078;5.070;2023-02-01T09:01:16;101996.47;;;7.26
77599;BMP280;66758;52.078;5.070;2023-02-01T09:03:42;101983.34;;;7.28
77599;BMP280;66758;52.078;5.070;2023-02-01T09:06:10;101980.72;;;7.36
77599;BMP280;66758;52.078;5.070;2023-02-01T09:08:49;101982.28;;;7.42
77599;BMP280;66758;52.078;5.070;2023-02-01T09:11:26;101978.63;;;7.47
77599;BMP280;66758;52.078;5.070;2023-02-01T09:13:52;101957.25;;;7.54
77599;BMP280;66758;52.078;5.070;2023-02-01T09:16:19;101967.03;;;7.69
77599;BMP280;66758;52.078;5.070;2023-02-01T09:21:31;101973.72;;;7.76
77599;BMP280;66758;52.078;5.070;2023-02-01T09:23:57;101958.53;;;7.70
77599;BMP280;66758;52.078;5.070;2023-02-01T09:26:23;101968.72;;;7.78
77599;BMP280;66758;52.078;5.070;2023-02-01T09:28:51;101967.22;;;7.72
77599;BMP280;66758;52.078;5.070;2023-02-01T09:31:20;101955.72;;;7.62
77599;BMP280;66758;52.078;5.070;2023-02-01T09:33:48;101970.84;;;7.68
77599;BMP280;66758;52.078;5.070;2023-02-01T09:36:14;101980.97;;;7.67
77599;BMP280;66758;52.078;5.070;2023-02-01T09:38:43;101978.44;;;7.57
77599;BMP280;66758;52.078;5.070;2023-02-01T09:41:43;101982.56;;;7.68
77599;BMP280;66758;52.078;5.070;2023-02-01T09:44:38;101986.31;;;7.72
77599;BMP280;66758;52.078;5.070;2023-02-01T09:47:14;101986.03;;;7.74
77599;BMP280;66758;52.078;5.070;2023-02-01T09:49:56;101985.50;;;7.72
77599;BMP280;66758;52.078;5.070;2023-02-01T09:52:35;101977.94;;;7.69
77599;BMP280;66758;52.078;5.070;2023-02-01T09:55:11;101980.97;;;7.67
77599;BMP280;66758;52.078;5.070;2023-02-01T09:58:06;101980.19;;;7.67
77599;BMP280;66758;52.078;5.070;2023-02-01T10:00:38;101988.53;;;7.56
77599;BMP280;66758;52.078;5.070;2023-02-01T10:03:11;101982.78;;;7.58
77599;BMP280;66758;52.078;5.070;2023-02-01T10:15:02;101984.84;;;7.34
77599;BMP280;66758;52.078;5.070;2023-02-01T10:26:45;101984.94;;;7.15
77599;BMP280;66758;52.078;5.070;2023-02-01T10:29:20;101987.00;;;7.37
77599;BMP280;66758;52.078;5.070;2023-02-01T10:31:48;101962.44;;;7.37
77599;BMP280;66758;52.078;5.070;2023-02-01T10:34:27;101987.22;;;7.40
77599;BMP280;66758;52.078;5.070;2023-02-01T10:36:56;101984.19;;;7.42
77599;BMP280;66758;52.078;5.070;2023-02-01T10:39:24;101973.28;;;7.42
77599;BMP280;66758;52.078;5.070;2023-02-01T10:41:50;101973.28;;;7.42
77599;BMP280;66758;52.078;5.070;2023-02-01T10:44:26;101970.66;;;7.50
77599;BMP280;66758;52.078;5.070;2023-02-01T10:46:52;101977.03;;;7.59
77599;BMP280;66758;52.078;5.070;2023-02-01T10:50:08;101978.44;;;7.57
77599;BMP280;66758;52.078;5.070;2023-02-01T10:52:38;101954.50;;;7.68
77599;BMP280;66758;52.078;5.070;2023-02-01T10:55:25;101977.63;;;7.70
77599;BMP280;66758;52.078;5.070;2023-02-01T10:58:05;101990.56;;;7.65
77599;BMP280;66758;52.078;5.070;2023-02-01T11:00:46;101979.56;;;7.70
77599;BMP280;66758;52.078;5.070;2023-02-01T11:03:36;101980.78;;;7.77
77599;BMP280;66758;52.078;5.070;2023-02-01T11:09:09;101964.59;;;7.67
77599;BMP280;66758;52.078;5.070;2023-02-01T11:14:17;101964.19;;;7.60
77599;BMP280;66758;52.078;5.070;2023-02-01T11:16:49;101956.63;;;7.43
77599;BMP280;66758;52.078;5.070;2023-02-01T11:19:16;101953.38;;;7.41
77599;BMP280;66758;52.078;5.070;2023-02-01T11:21:43;101968.41;;;7.39
77599;BMP280;66758;52.078;5.070;2023-02-01T11:26:49;101963.47;;;7.41
77599;BMP280;66758;52.078;5.070;2023-02-01T11:29:18;101960.97;;;7.58
77599;BMP280;66758;52.078;5.070;2023-02-01T11:31:49;101945.09;;;7.60
77599;BMP280;66758;52.078;5.070;2023-02-01T11:34:19;101949.84;;;7.68
77599;BMP280;66758;52.078;5.070;2023-02-01T11:36:48;101964.41;;;7.77
77599;BMP280;66758;52.078;5.070;2023-02-01T11:44:42;101949.84;;;7.95
77599;BMP280;66758;52.078;5.070;2023-02-01T11:47:23;101964.28;;;7.96
77599;BMP280;66758;52.078;5.070;2023-02-01T11:50:00;101956.91;;;7.97
77599;BMP280;66758;52.078;5.070;2023-02-01T11:52:37;101962.38;;;7.97
77599;BMP280;66758;52.078;5.070;2023-02-01T12:05:35;101925.72;;;8.25
77599;BMP280;66758;52.078;5.070;2023-02-01T12:08:26;101909.94;;;8.22
77599;BMP280;66758;52.078;5.070;2023-02-01T12:16:28;101922.25;;;8.33
77599;BMP280;66758;52.078;5.070;2023-02-01T12:19:06;101911.72;;;8.40
77599;BMP280;66758;52.078;5.070;2023-02-01T12:21:53;101916.53;;;8.43
77599;BMP280;66758;52.078;5.070;2023-02-01T12:35:53;101922.25;;;8.33
77599;BMP280;66758;52.078;5.070;2023-02-01T12:44:18;101909.03;;;8.49
77599;BMP280;66758;52.078;5.070;2023-02-01T12:46:59;101910.97;;;8.48
77599;BMP280;66758;52.078;5.070;2023-02-01T12:49:44;101925.84;;;8.64
77599;BMP280;66758;52.078;5.070;2023-02-01T12:52:20;101926.16;;;8.63
77599;BMP280;66758;52.078;5.070;2023-02-01T12:54:53;101933.94;;;8.69
77599;BMP280;66758;52.078;5.070;2023-02-01T12:57:26;101891.47;;;8.63
77599;BMP280;66758;52.078;5.070;2023-02-01T13:02:41;101920.13;;;8.75
77599;BMP280;66758;52.078;5.070;2023-02-01T13:05:19;101913.81;;;8.88
77599;BMP280;66758;52.078;5.070;2023-02-01T13:07:53;101926.09;;;8.77
77599;BMP280;66758;52.078;5.070;2023-02-01T13:10:21;101918.41;;;8.79
77599;BMP280;66758;52.078;5.070;2023-02-01T13:12:54;101922.81;;;8.66
77599;BMP280;66758;52.078;5.070;2023-02-01T13:15:42;101934.84;;;8.65
77599;BMP280;66758;52.078;5.070;2023-02-01T13:18:15;101951.91;;;8.62
77599;BMP280;66758;52.078;5.070;2023-02-01T13:23:40;101925.25;;;8.67
77599;BMP280;66758;52.078;5.070;2023-02-01T13:26:07;101891.59;;;8.58
77599;BMP280;66758;52.078;5.070;2023-02-01T13:28:49;101910.22;;;8.56
77599;BMP280;66758;52.078;5.070;2023-02-01T13:39:43;101927.06;;;8.50
77599;BMP280;66758;52.078;5.070;2023-02-01T13:42:21;101925.19;;;8.59
77599;BMP280;66758;52.078;5.070;2023-02-01T13:45:00;101913.56;;;8.53
77599;BMP280;66758;52.078;5.070;2023-02-01T13:47:39;101904.38;;;8.49
77599;BMP280;66758;52.078;5.070;2023-02-01T13:50:21;101930.97;;;8.57
77599;BMP280;66758;52.078;5.070;2023-02-01T13:55:54;101907.63;;;8.51
77599;BMP280;66758;52.078;5.070;2023-02-01T13:58:31;101913.41;;;8.50
77599;BMP280;66758;52.078;5.070;2023-02-01T14:03:53;101922.34;;;8.42
77599;BMP280;66758;52.078;5.070;2023-02-01T14:09:36;101936.16;;;8.45
77599;BMP280;66758;52.078;5.070;2023-02-01T14:12:42;101917.41;;;8.52
77599;BMP280;66758;52.078;5.070;2023-02-01T14:15:26;101934.94;;;8.51
77599;BMP280;66758;52.078;5.070;2023-02-01T14:17:54;101947.44;;;8.52
77599;BMP280;66758;52.078;5.070;2023-02-01T14:23:27;101922.19;;;8.47
77599;BMP280;66758;52.078;5.070;2023-02-01T14:26:04;101938.94;;;8.54
77599;BMP280;66758;52.078;5.070;2023-02-01T14:28:40;101936.53;;;8.52
77599;BMP280;66758;52.078;5.070;2023-02-01T14:33:58;101931.25;;;8.56
77599;BMP280;66758;52.078;5.070;2023-02-01T14:36:25;101939.16;;;8.57
77599;BMP280;66758;52.078;5.070;2023-02-01T14:38:52;101930.59;;;8.50
77599;BMP280;66758;52.078;5.070;2023-02-01T14:41:37;101929.03;;;8.58
77599;BMP280;66758;52.078;5.070;2023-02-01T14:49:54;101943.69;;;8.40
77599;BMP280;66758;52.078;5.070;2023-02-01T14:52:23;101925.53;;;8.44
77599;BMP280;66758;52.078;5.070;2023-02-01T14:54:57;101928.09;;;8.40
77599;BMP280;66758;52.078;5.070;2023-02-01T14:57:27;101934.53;;;8.44
77599;BMP280;66758;52.078;5.070;2023-02-01T15:00:14;101940.31;;;8.43
77599;BMP280;66758;52.078;5.070;2023-02-01T15:02:42;101948.50;;;8.43
77599;BMP280;66758;52.078;5.070;2023-02-01T15:05:32;101945.47;;;8.44
77599;BMP280;66758;52.078;5.070;2023-02-01T15:08:16;101949.72;;;8.50
77599;BMP280;66758;52.078;5.070;2023-02-01T15:10:45;101938.47;;;8.52
77599;BMP280;66758;52.078;5.070;2023-02-01T15:13:20;101946.16;;;8.50
77599;BMP280;66758;52.078;5.070;2023-02-01T15:16:02;101938.28;;;8.48
77599;BMP280;66758;52.078;5.070;2023-02-01T15:18:28;101949.78;;;8.59
77599;BMP280;66758;52.078;5.070;2023-02-01T15:21:01;101942.00;;;8.52
77599;BMP280;66758;52.078;5.070;2023-02-01T15:23:28;101948.25;;;8.53
77599;BMP280;66758;52.078;5.070;2023-02-01T15:25:56;101951.25;;;8.65
77599;BMP280;66758;52.078;5.070;2023-02-01T15:28:23;101956.34;;;8.58
77599;BMP280;66758;52.078;5.070;2023-02-01T15:31:04;101948.69;;;8.46
77599;BMP280;66758;52.078;5.070;2023-02-01T15:33:31;101967.63;;;8.43
77599;BMP280;66758;52.078;5.070;2023-02-01T15:38:35;101973.78;;;8.48
77599;BMP280;66758;52.078;5.070;2023-02-01T15:41:18;101968.31;;;8.48
77599;BMP280;66758;52.078;5.070;2023-02-01T15:46:24;101971.72;;;8.54
77599;BMP280;66758;52.078;5.070;2023-02-01T15:48:54;101984.78;;;8.57
77599;BMP280;66758;52.078;5.070;2023-02-01T15:51:28;101984.09;;;8.51
77599;BMP280;66758;52.078;5.070;2023-02-01T15:54:03;101974.66;;;8.57
77599;BMP280;66758;52.078;5.070;2023-02-01T15:56:35;101973.19;;;8.51
77599;BMP280;66758;52.078;5.070;2023-02-01T15:59:02;101969.06;;;8.40
77599;BMP280;66758;52.078;5.070;2023-02-01T16:01:30;101987.94;;;8.50
77599;BMP280;66758;52.078;5.070;2023-02-01T16:04:23;101970.34;;;8.43
77599;BMP280;66758;52.078;5.070;2023-02-01T16:06:52;101968.31;;;8.48
77599;BMP280;66758;52.078;5.070;2023-02-01T16:09:20;101963.84;;;8.52
77599;BMP280;66758;52.078;5.070;2023-02-01T16:11:52;101974.91;;;8.47
77599;BMP280;66758;52.078;5.070;2023-02-01T16:14:19;101975.91;;;8.51
77599;BMP280;66758;52.078;5.070;2023-02-01T16:16:44;101971.97;;;8.44
77599;BMP280;66758;52.078;5.070;2023-02-01T16:19:10;101967.47;;;8.61
77599;BMP280;66758;52.078;5.070;2023-02-01T16:21:35;101989.81;;;8.63
77599;BMP280;66758;52.078;5.070;2023-02-01T16:24:01;101974.72;;;8.66
77599;BMP280;66758;52.078;5.070;2023-02-01T16:26:32;101998.06;;;8.72
77599;BMP280;66758;52.078;5.070;2023-02-01T16:28:59;101971.78;;;8.62
77599;BMP280;66758;52.078;5.070;2023-02-01T16:31:30;101980.38;;;8.69
77599;BMP280;66758;52.078;5.070;2023-02-01T16:33:57;101985.44;;;8.62
77599;BMP280;66758;52.078;5.070;2023-02-01T16:36:24;101980.63;;;8.59
77599;BMP280;66758;52.078;5.070;2023-02-01T16:38:50;101997.91;;;8.68
77599;BMP280;66758;52.078;5.070;2023-02-01T16:41:20;101999.91;;;8.63
77599;BMP280;66758;52.078;5.070;2023-02-01T16:43:50;102000.03;;;8.72
77599;BMP280;66758;52.078;5.070;2023-02-01T16:46:19;102005.09;;;8.64
77599;BMP280;66758;52.078;5.070;2023-02-01T16:49:00;102011.13;;;8.75
77599;BMP280;66758;52.078;5.070;2023-02-01T16:51:28;102002.75;;;8.72
77599;BMP280;66758;52.078;5.070;2023-02-01T16:53:57;102008.69;;;8.74
77599;BMP280;66758;52.078;5.070;2023-02-01T16:56:33;102013.19;;;8.69
77599;BMP280;66758;52.078;5.070;2023-02-01T16:58:59;102001.38;;;8.60
77599;BMP280;66758;52.078;5.070;2023-02-01T17:01:25;102026.03;;;8.69
77599;BMP280;66758;52.078;5.070;2023-02-01T17:03:51;102033.78;;;8.76